Roper, Georgia
Current Conditions -  °F | °C
As of 6:35 AM on Friday 31 Oct 2014 (Local Time) from KAZE Reporting Station
Clear Clear  
Wind Chill: 49°   Ceiling: Unl
Heat Index: 49°   Visibility: 10mi
Dew Point: 48°   Wind: 0mph
Humidity: 99%   Direction: NA
Pressure: 29.9"   Gusts: NA
Location:  31.8468°N, 82.5686°W
Report Text: KAZE 311035Z AUTO 00000KT 10SM CLR 09/09 A2990 RMK AO2 T00920091
Loading
Personal Weather Stations






























Interactive Weather Map
Tropical Storm Tracking
New forecast layout! Learn more

10-Day Weather Forecast

Advertisements
Track Severe Weather on mobile